Time;durP1;ratioP1;P1;durP2;ratioP2;P2;SDS_P1;SDS_P2;PMS_P1;PMS_P2;Temp;Humidity;BMP_temperature;BMP_pressure;BME280_temperature;BME280_humidity;BME280_pressure;Samples;Min_cycle;Max_cycle;Signal;HPM_P1;HPM_P2
2022/04/16 00:01:05;;;;;;;18.42;9.85;;;;;;;7.20;79.35;98984.69;5091923;28;20469;-86
2022/04/16 00:03:31;;;;;;;10.57;7.63;;;;;;;7.17;80.35;98993.38;5088979;28;20069;-86
2022/04/16 00:05:57;;;;;;;9.15;6.78;;;;;;;7.12;80.30;98996.91;5091017;28;20016;-86
2022/04/16 00:08:25;;;;;;;6.25;4.40;;;;;;;7.02;79.96;99007.72;5094572;28;20093;-85
2022/04/16 00:10:51;;;;;;;9.30;5.28;;;;;;;6.89;80.20;99003.53;5092987;28;20027;-85
2022/04/16 00:13:18;;;;;;;6.13;3.60;;;;;;;6.70;80.00;99004.72;5090788;28;20467;-85
2022/04/16 00:15:44;;;;;;;5.55;3.60;;;;;;;6.60;80.17;99015.50;5091628;28;20039;-86
2022/04/16 00:18:10;;;;;;;5.53;4.03;;;;;;;6.52;79.64;99005.91;5092983;28;20469;-84
2022/04/16 00:20:36;;;;;;;5.50;3.50;;;;;;;6.50;80.15;99012.69;5089454;28;20035;-84
2022/04/16 00:23:02;;;;;;;7.15;4.13;;;;;;;6.40;79.82;99016.09;5089174;28;20043;-83
2022/04/16 00:25:33;;;;;;;5.40;3.78;;;;;;;6.34;79.72;99009.78;5089589;28;20393;-83
2022/04/16 00:27:59;;;;;;;7.63;4.50;;;;;;;6.32;80.15;99013.81;5089361;28;20143;-83
2022/04/16 00:30:24;;;;;;;7.10;4.88;;;;;;;6.32;79.73;99014.66;5089430;28;20394;-84
2022/04/16 00:32:54;;;;;;;5.53;3.92;;;;;;;6.33;80.80;99012.75;5088091;28;20028;-85
2022/04/16 00:35:20;;;;;;;5.45;4.30;;;;;;;6.30;79.97;99013.28;5089121;28;20020;-84
2022/04/16 00:37:46;;;;;;;5.60;4.30;;;;;;;6.22;79.72;99014.53;5090224;28;20028;-84
2022/04/16 00:40:11;;;;;;;5.32;4.38;;;;;;;6.15;80.31;99012.00;5089364;28;20032;-84
2022/04/16 00:42:44;;;;;;;6.25;4.90;;;;;;;6.10;79.79;99014.66;5090907;28;20074;-84
2022/04/16 00:45:10;;;;;;;6.45;5.00;;;;;;;6.07;80.19;99020.63;5088162;28;20048;-84
2022/04/16 00:47:36;;;;;;;6.45;4.82;;;;;;;5.96;80.68;99023.16;5089765;28;20488;-83
2022/04/16 00:50:04;;;;;;;7.40;5.03;;;;;;;5.86;80.57;99028.50;5090498;28;20031;-84
2022/04/16 00:52:30;;;;;;;6.05;4.75;;;;;;;5.78;81.39;99026.19;5093794;28;20110;-78
2022/04/16 00:54:56;;;;;;;8.05;5.82;;;;;;;5.73;81.13;99028.84;5091951;28;20067;-79
2022/04/16 00:57:23;;;;;;;6.75;5.10;;;;;;;5.74;81.61;99034.03;5089596;28;20032;-78
2022/04/16 00:59:48;;;;;;;5.10;4.38;;;;;;;5.76;81.47;99044.69;5086722;28;20028;-78
2022/04/16 01:02:14;;;;;;;6.93;5.07;;;;;;;5.77;81.44;99035.44;5087344;28;20035;-78
2022/04/16 01:04:39;;;;;;;5.47;4.22;;;;;;;5.77;81.43;99043.59;5088316;28;20020;-78
2022/04/16 01:07:08;;;;;;;6.93;4.93;;;;;;;5.80;81.23;99043.91;5087907;28;20020;-78
2022/04/16 01:09:36;;;;;;;6.57;5.65;;;;;;;5.84;80.65;99048.84;5088520;28;20478;-79
2022/04/16 01:12:01;;;;;;;7.32;5.13;;;;;;;5.84;80.88;99044.25;5088510;28;20016;-79
2022/04/16 01:14:28;;;;;;;8.20;5.82;;;;;;;5.85;80.88;99043.19;5087215;28;20386;-79
2022/04/16 01:16:55;;;;;;;7.60;6.05;;;;;;;5.80;80.78;99054.00;5087936;28;20138;-79
2022/04/16 01:19:23;;;;;;;7.80;5.47;;;;;;;5.72;80.88;99052.50;5092495;28;20024;-79
2022/04/16 01:21:50;;;;;;;8.35;6.68;;;;;;;5.65;80.22;99049.97;5090929;28;20036;-79
2022/04/16 01:24:43;;;;;;;8.55;5.55;;;;;;;5.63;80.88;99054.00;5092174;28;20031;-79
2022/04/16 01:27:10;;;;;;;7.85;5.72;;;;;;;5.57;80.69;99057.72;5089983;28;20035;-79
2022/04/16 01:29:36;;;;;;;8.02;5.75;;;;;;;5.51;80.89;99063.09;5093477;28;20070;-78
2022/04/16 01:32:02;;;;;;;8.10;5.40;;;;;;;5.45;81.04;99058.63;5093794;28;20016;-78
2022/04/16 01:34:28;;;;;;;8.15;5.95;;;;;;;5.41;80.45;99065.63;5093346;28;20020;-78
2022/04/16 01:36:54;;;;;;;6.55;5.15;;;;;;;5.35;81.10;99067.47;5092658;28;20028;-78
2022/04/16 01:39:19;;;;;;;6.90;5.57;;;;;;;5.28;80.84;99068.69;5093203;28;20027;-78
2022/04/16 01:41:46;;;;;;;8.27;6.03;;;;;;;5.23;81.35;99061.25;5093526;28;20027;-78
2022/04/16 01:44:11;;;;;;;7.03;5.03;;;;;;;5.23;80.78;99072.13;5093139;28;20016;-78
2022/04/16 01:46:37;;;;;;;7.57;5.35;;;;;;;5.20;81.09;99076.19;5093112;28;20105;-78
2022/04/16 01:49:02;;;;;;;7.15;5.60;;;;;;;5.19;81.34;99079.97;5094196;28;20035;-78
2022/04/16 01:51:28;;;;;;;7.63;5.78;;;;;;;5.18;81.16;99078.31;5093253;28;20039;-79
2022/04/16 01:53:53;;;;;;;6.72;4.80;;;;;;;5.15;82.31;99084.25;5093239;28;20020;-79
2022/04/16 01:56:19;;;;;;;5.82;4.72;;;;;;;5.12;81.75;99090.19;5093192;28;20028;-79
2022/04/16 01:58:45;;;;;;;6.25;4.68;;;;;;;5.05;81.96;99084.06;5093195;28;20050;-79
2022/04/16 02:01:10;;;;;;;7.68;5.32;;;;;;;4.95;81.68;99092.88;5093363;28;20055;-78
2022/04/16 02:03:39;;;;;;;4.97;3.90;;;;;;;4.87;81.46;99095.97;5093899;28;20023;-78
2022/04/16 02:06:05;;;;;;;4.90;3.67;;;;;;;4.76;81.96;99090.34;5093107;28;20020;-78
2022/04/16 02:08:30;;;;;;;4.80;3.53;;;;;;;4.73;81.61;99098.16;5091536;28;20489;-78
2022/04/16 02:10:56;;;;;;;4.20;2.80;;;;;;;4.69;82.06;99097.00;5092332;28;20027;-78
2022/04/16 02:13:21;;;;;;;3.67;2.65;;;;;;;4.64;80.99;99096.88;5092360;28;20428;-78
2022/04/16 02:15:46;;;;;;;6.53;3.67;;;;;;;4.57;80.77;99102.47;5092515;28;20028;-78
2022/04/16 02:18:12;;;;;;;5.47;3.30;;;;;;;4.56;81.35;99114.41;5092530;28;20035;-79
2022/04/16 02:20:38;;;;;;;3.63;2.42;;;;;;;4.55;81.47;99115.47;5092107;28;20078;-79
2022/04/16 02:23:04;;;;;;;4.25;3.00;;;;;;;4.49;80.83;99116.41;5092349;28;20077;-79
2022/04/16 02:25:33;;;;;;;3.72;2.70;;;;;;;4.42;80.05;99117.38;5092643;28;20028;-79
2022/04/16 02:27:58;;;;;;;3.78;2.70;;;;;;;4.33;80.34;99118.81;5092176;28;20028;-79
2022/04/16 02:30:23;;;;;;;4.72;3.08;;;;;;;4.34;80.61;99125.06;5092359;28;20032;-78
2022/04/16 02:32:53;;;;;;;4.03;2.40;;;;;;;4.34;80.23;99122.34;5092813;28;20114;-80
2022/04/16 02:35:19;;;;;;;3.63;2.25;;;;;;;4.38;80.25;99127.06;5091760;28;20028;-79
2022/04/16 02:37:46;;;;;;;3.03;2.22;;;;;;;4.35;79.99;99126.72;5091449;28;20431;-79
2022/04/16 02:40:13;;;;;;;3.05;2.58;;;;;;;4.28;79.33;99124.16;5091299;28;20016;-78
2022/04/16 02:42:40;;;;;;;3.13;2.40;;;;;;;4.25;79.85;99130.06;5091914;28;20036;-78
2022/04/16 02:47:53;;;;;;;3.63;2.40;;;;;;;4.17;79.75;99128.50;5091494;28;20141;-78
2022/04/16 02:50:21;;;;;;;3.28;2.47;;;;;;;4.11;79.97;99135.72;5092419;28;20383;-78
2022/04/16 02:52:46;;;;;;;3.83;2.30;;;;;;;4.13;80.35;99140.91;5092015;28;20111;-78
2022/04/16 02:55:15;;;;;;;4.30;3.20;;;;;;;4.13;80.20;99141.75;5095193;28;20114;-78
2022/04/16 02:57:44;;;;;;;3.35;2.40;;;;;;;4.08;80.44;99149.75;5091993;28;20099;-79
2022/04/16 03:00:11;;;;;;;3.23;2.57;;;;;;;4.07;80.20;99145.41;5092185;28;20077;-79
2022/04/16 03:02:37;;;;;;;3.58;2.78;;;;;;;4.09;81.26;99148.72;5092013;28;20668;-79
2022/04/16 03:05:06;;;;;;;3.05;2.17;;;;;;;4.13;80.06;99154.47;5090390;28;20031;-79
2022/04/16 03:07:35;;;;;;;6.80;3.50;;;;;;;4.13;80.83;99149.03;5092130;28;20082;-78
2022/04/16 03:10:02;;;;;;;3.30;2.50;;;;;;;4.08;80.19;99160.63;5092496;28;20016;-78
2022/04/16 03:12:28;;;;;;;20.17;10.05;;;;;;;4.09;80.92;99154.13;5091764;28;20024;-79
2022/04/16 03:17:37;;;;;;;12.90;5.75;;;;;;;4.19;80.21;99171.72;5090982;28;20129;-79
2022/04/16 03:20:05;;;;;;;8.38;4.63;;;;;;;4.15;80.55;99172.19;5091993;28;20458;-79
2022/04/16 03:22:33;;;;;;;5.93;3.78;;;;;;;4.13;80.30;99171.59;5091670;28;20024;-79
2022/04/16 03:24:59;;;;;;;6.07;4.15;;;;;;;4.08;80.33;99182.34;5091410;28;20462;-79
2022/04/16 03:27:24;;;;;;;7.90;6.00;;;;;;;4.10;80.54;99182.09;5091295;28;20023;-79
2022/04/16 03:29:50;;;;;;;7.13;4.70;;;;;;;4.06;80.46;99187.19;5091294;28;20053;-79
2022/04/16 03:32:15;;;;;;;5.95;3.78;;;;;;;4.06;80.94;99189.91;5091311;28;20081;-79
2022/04/16 03:34:40;;;;;;;5.22;4.15;;;;;;;4.10;80.66;99192.94;5091416;28;20027;-78
2022/04/16 03:37:06;;;;;;;5.03;3.75;;;;;;;4.10;80.24;99187.53;5091079;28;20019;-78
2022/04/16 03:39:33;;;;;;;5.55;3.97;;;;;;;4.05;80.63;99196.38;5089906;28;20028;-78
2022/04/16 03:41:58;;;;;;;5.45;3.95;;;;;;;3.97;81.01;99196.72;5090704;28;20020;-78
2022/04/16 03:44:24;;;;;;;6.60;4.15;;;;;;;3.92;81.06;99192.00;5090854;28;20043;-78
2022/04/16 03:46:49;;;;;;;4.80;3.88;;;;;;;3.91;81.14;99193.06;5091490;28;20464;-76
2022/04/16 03:49:14;;;;;;;4.53;3.58;;;;;;;3.90;81.25;99196.84;5091429;28;20027;-77
2022/04/16 03:51:40;;;;;;;5.00;3.47;;;;;;;3.86;81.01;99201.94;5090806;28;20016;-77
2022/04/16 04:02:18;;;;;;;6.45;4.78;;;;;;;3.80;81.29;99204.72;5089805;28;20078;-77
2022/04/16 04:04:43;;;;;;;6.32;4.32;;;;;;;3.78;80.70;99209.56;5091103;28;20423;-76
2022/04/16 04:07:12;;;;;;;5.63;5.03;;;;;;;3.78;80.94;99215.81;5090885;28;20032;-76
2022/04/16 04:09:38;;;;;;;8.20;4.90;;;;;;;3.76;81.77;99215.22;5091047;28;20020;-76
2022/04/16 04:12:14;;;;;;;6.03;4.72;;;;;;;3.72;81.77;99222.19;5090538;28;20355;-76
2022/04/16 04:14:40;;;;;;;5.80;3.90;;;;;;;3.75;81.16;99221.72;5090390;28;20046;-76
2022/04/16 04:17:09;;;;;;;5.88;4.40;;;;;;;3.75;81.71;99219.00;5090559;28;20024;-76
2022/04/16 04:19:37;;;;;;;5.43;4.23;;;;;;;3.70;81.97;99227.81;5089329;28;20024;-76
2022/04/16 04:22:07;;;;;;;5.00;3.80;;;;;;;3.67;81.74;99219.34;5088728;28;20500;-76
2022/04/16 04:24:33;;;;;;;5.95;4.82;;;;;;;3.66;81.70;99229.38;5091200;28;20031;-76
2022/04/16 04:26:59;;;;;;;5.75;4.10;;;;;;;3.69;82.07;99230.78;5089697;28;20541;-76
2022/04/16 04:29:26;;;;;;;7.03;4.40;;;;;;;3.73;81.56;99216.50;5088332;28;20035;-76
2022/04/16 04:31:51;;;;;;;6.60;4.50;;;;;;;3.72;81.60;99228.41;5091019;28;20031;-76
2022/04/16 04:34:17;;;;;;;5.43;4.05;;;;;;;3.75;81.81;99219.00;5094798;28;20024;-76
2022/04/16 04:36:42;;;;;;;6.40;4.82;;;;;;;3.79;82.19;99224.78;5091124;28;20024;-76
2022/04/16 04:39:08;;;;;;;6.85;4.40;;;;;;;3.83;82.11;99229.53;5091430;28;20020;-76
2022/04/16 04:41:33;;;;;;;8.15;5.38;;;;;;;3.86;81.42;99236.38;5090762;28;20039;-76
2022/04/16 04:43:59;;;;;;;6.72;4.50;;;;;;;3.88;81.43;99240.47;5091372;28;20068;-76
2022/04/16 04:46:24;;;;;;;6.82;4.75;;;;;;;3.93;82.16;99244.38;5090569;28;20047;-76
2022/04/16 04:48:49;;;;;;;6.03;4.60;;;;;;;3.96;81.64;99241.22;5090974;28;20039;-76
2022/04/16 04:51:15;;;;;;;6.03;4.57;;;;;;;3.95;81.80;99245.81;5089100;28;20020;-76
2022/04/16 04:53:40;;;;;;;6.75;4.30;;;;;;;3.93;80.77;99241.69;5089871;28;20116;-76
2022/04/16 04:56:06;;;;;;;6.57;4.80;;;;;;;3.90;81.67;99251.13;5088104;28;20024;-77
2022/04/16 04:58:31;;;;;;;6.03;5.30;;;;;;;3.95;81.76;99253.13;5090533;28;20024;-76
2022/04/16 05:00:57;;;;;;;6.18;4.80;;;;;;;3.93;80.72;99263.38;5089420;28;20099;-76
2022/04/16 05:03:23;;;;;;;8.57;6.20;;;;;;;3.89;81.43;99257.59;5087514;28;20035;-76
2022/04/16 05:05:49;;;;;;;9.20;6.25;;;;;;;3.83;81.85;99269.38;5089529;28;20028;-77
2022/04/16 05:08:14;;;;;;;7.60;5.80;;;;;;;3.78;81.19;99264.66;5090026;28;20021;-77
2022/04/16 05:10:40;;;;;;;7.18;4.43;;;;;;;3.78;81.69;99269.25;5091561;28;20032;-76
2022/04/16 05:13:05;;;;;;;6.88;5.07;;;;;;;3.74;81.43;99268.91;5090685;28;20040;-77
2022/04/16 05:15:31;;;;;;;7.47;5.72;;;;;;;3.73;82.09;99276.19;5090850;28;20028;-77
2022/04/16 05:17:56;;;;;;;9.00;6.10;;;;;;;3.73;81.95;99276.19;5090609;28;20051;-76
2022/04/16 05:20:22;;;;;;;11.48;8.05;;;;;;;3.73;81.99;99278.91;5092434;28;20024;-76
2022/04/16 05:22:49;;;;;;;8.18;5.60;;;;;;;3.70;82.17;99287.50;5090617;28;20065;-76
2022/04/16 05:25:14;;;;;;;10.73;6.95;;;;;;;3.68;82.18;99288.81;5089881;28;20089;-76
2022/04/16 05:27:39;;;;;;;7.13;5.30;;;;;;;3.67;81.77;99290.69;5090440;28;20436;-77
2022/04/16 05:30:13;;;;;;;9.15;5.93;;;;;;;3.67;82.17;99298.81;5090426;28;20024;-77
2022/04/16 05:32:40;;;;;;;8.63;5.97;;;;;;;3.71;82.01;99305.44;5089274;28;20486;-76
2022/04/16 05:35:07;;;;;;;9.25;6.57;;;;;;;3.71;82.06;99310.88;5090568;28;20035;-76
2022/04/16 05:37:34;;;;;;;10.48;6.80;;;;;;;3.69;81.48;99306.75;5090603;28;20035;-76
2022/04/16 05:40:00;;;;;;;9.05;6.32;;;;;;;3.63;82.01;99307.66;5087802;28;20032;-76
2022/04/16 05:42:25;;;;;;;8.85;6.07;;;;;;;3.60;82.79;99313.53;5090803;28;20633;-76
2022/04/16 05:44:51;;;;;;;8.57;6.50;;;;;;;3.57;82.11;99309.41;5090570;28;20040;-76
2022/04/16 05:47:16;;;;;;;9.05;6.13;;;;;;;3.58;82.16;99317.31;5086081;28;20070;-75
2022/04/16 05:49:42;;;;;;;9.45;6.00;;;;;;;3.61;83.07;99317.91;5091415;28;20032;-75
2022/04/16 05:52:08;;;;;;;10.60;6.78;;;;;;;3.65;82.35;99321.81;5090898;28;20016;-76
2022/04/16 05:54:36;;;;;;;10.50;7.25;;;;;;;3.64;82.91;99323.72;5089816;28;20036;-76
2022/04/16 05:57:01;;;;;;;11.98;7.82;;;;;;;3.64;83.25;99322.88;5090275;28;20035;-76
2022/04/16 05:59:27;;;;;;;12.50;7.85;;;;;;;3.63;83.00;99329.34;5090915;28;20420;-76
2022/04/16 06:01:52;;;;;;;17.27;9.90;;;;;;;3.66;83.15;99337.03;5090215;28;20405;-75
2022/04/16 06:04:18;;;;;;;10.52;7.57;;;;;;;3.67;83.50;99336.00;5090814;28;20024;-76
2022/04/16 06:06:43;;;;;;;10.43;7.40;;;;;;;3.63;82.21;99345.63;5094050;28;20371;-75
2022/04/16 06:09:09;;;;;;;11.38;7.75;;;;;;;3.59;83.05;99342.56;5094834;28;20044;-75
2022/04/16 06:11:34;;;;;;;14.10;8.80;;;;;;;3.53;83.04;99341.56;5093962;28;20580;-76
2022/04/16 06:13:59;;;;;;;9.60;6.78;;;;;;;3.48;82.87;99344.13;5097215;28;20104;-76
2022/04/16 06:16:26;;;;;;;12.93;8.57;;;;;;;3.48;82.49;99351.47;5093486;28;20043;-75
2022/04/16 06:18:51;;;;;;;12.60;8.85;;;;;;;3.48;82.12;99359.59;5095567;28;20107;-76
2022/04/16 06:21:17;;;;;;;12.13;8.35;;;;;;;3.49;82.86;99351.22;5093459;28;20446;-76
2022/04/16 06:23:42;;;;;;;11.05;7.32;;;;;;;3.51;82.84;99348.28;5094398;28;20088;-75
2022/04/16 06:26:07;;;;;;;11.25;7.50;;;;;;;3.53;82.50;99360.56;5093773;28;20081;-76
2022/04/16 06:28:33;;;;;;;13.50;8.70;;;;;;;3.52;82.84;99363.50;5092847;28;20401;-75
2022/04/16 06:30:58;;;;;;;13.20;8.68;;;;;;;3.53;83.41;99354.31;5094084;28;20024;-76
2022/04/16 06:33:24;;;;;;;9.25;6.45;;;;;;;3.54;83.41;99353.28;5093804;28;20028;-76
2022/04/16 06:35:49;;;;;;;13.13;8.05;;;;;;;3.56;83.20;99357.41;5092770;28;20024;-78
2022/04/16 06:38:14;;;;;;;22.25;10.18;;;;;;;3.57;82.36;99364.47;5091840;28;20381;-82
2022/04/16 06:40:40;;;;;;;18.50;9.88;;;;;;;3.61;82.20;99369.44;5092600;28;20592;-81
2022/04/16 06:43:05;;;;;;;29.92;12.63;;;;;;;3.68;83.00;99378.34;5093636;28;20089;-80
2022/04/16 06:45:31;;;;;;;36.30;16.67;;;;;;;3.68;82.79;99373.72;5092273;28;20093;-80
2022/04/16 06:47:57;;;;;;;39.35;17.67;;;;;;;3.69;83.29;99382.72;5092560;28;20024;-81
2022/04/16 06:50:22;;;;;;;22.65;11.20;;;;;;;3.69;82.76;99383.53;5093318;28;20099;-81
2022/04/16 06:52:48;;;;;;;22.33;12.80;;;;;;;3.68;82.93;99381.88;5093981;28;20032;-80
2022/04/16 06:55:13;;;;;;;24.55;12.55;;;;;;;3.68;83.22;99376.44;5092087;28;20028;-82
2022/04/16 06:57:39;;;;;;;17.30;10.63;;;;;;;3.69;82.83;99382.72;5091785;28;20110;-80
2022/04/16 07:00:06;;;;;;;14.57;9.80;;;;;;;3.68;82.34;99400.03;5090829;28;20024;-80
2022/04/16 07:02:31;;;;;;;12.80;8.38;;;;;;;3.65;82.94;99400.50;5089975;28;20488;-79
2022/04/16 07:04:58;;;;;;;12.60;9.20;;;;;;;3.57;82.85;99388.09;5094144;28;20040;-80
2022/04/16 07:07:23;;;;;;;12.57;9.10;;;;;;;3.56;82.65;99394.56;5091155;28;20028;-82
2022/04/16 07:09:49;;;;;;;18.90;11.65;;;;;;;3.60;82.45;99400.34;5091757;28;20518;-82
2022/04/16 07:12:15;;;;;;;14.98;9.95;;;;;;;3.63;82.69;99405.31;5090999;28;20027;-82
2022/04/16 07:14:40;;;;;;;14.05;9.88;;;;;;;3.63;82.48;99402.59;5092114;28;20595;-83
2022/04/16 07:17:07;;;;;;;16.17;10.85;;;;;;;3.65;82.95;99411.34;5093591;28;20024;-82
2022/04/16 07:19:33;;;;;;;14.07;9.80;;;;;;;3.66;83.10;99404.88;5091907;28;20047;-82
2022/04/16 07:21:59;;;;;;;15.25;11.13;;;;;;;3.70;82.51;99396.03;5092135;28;20036;-81
2022/04/16 07:24:25;;;;;;;14.02;10.57;;;;;;;3.77;83.11;99401.41;5092366;28;20530;-81
2022/04/16 07:26:53;;;;;;;13.13;10.02;;;;;;;3.79;83.02;99412.84;5092198;28;20103;-81
2022/04/16 07:29:19;;;;;;;12.95;9.68;;;;;;;3.81;83.07;99390.91;5092757;28;20153;-82
2022/04/16 07:31:48;;;;;;;12.07;9.30;;;;;;;3.80;83.06;99409.09;5092820;28;20031;-81
2022/04/16 07:34:14;;;;;;;12.85;9.95;;;;;;;3.81;82.67;99404.47;5094725;28;20032;-82
2022/04/16 07:36:44;;;;;;;12.82;9.38;;;;;;;3.86;82.91;99410.88;5091480;28;20386;-84
2022/04/16 07:39:11;;;;;;;12.75;9.88;;;;;;;3.92;82.73;99413.72;5092556;28;20062;-85
2022/04/16 07:41:36;;;;;;;15.57;9.68;;;;;;;3.93;82.37;99418.09;5094257;28;20016;-86
2022/04/16 07:44:03;;;;;;;14.15;9.77;;;;;;;3.92;82.25;99420.00;5089251;28;20039;-83
2022/04/16 07:46:30;;;;;;;14.50;9.05;;;;;;;3.93;81.84;99405.38;5094649;28;20129;-83
2022/04/16 07:48:59;;;;;;;18.85;12.38;;;;;;;3.97;82.65;99428.28;5091204;28;20032;-78
2022/04/16 07:51:28;;;;;;;17.00;11.23;;;;;;;3.99;82.22;99419.91;5090821;28;20039;-80
2022/04/16 07:53:54;;;;;;;15.10;10.45;;;;;;;3.99;82.53;99419.91;5091957;28;20035;-79
2022/04/16 07:56:19;;;;;;;19.17;13.80;;;;;;;4.01;81.97;99421.34;5091959;28;20106;-80
2022/04/16 07:58:45;;;;;;;16.35;11.82;;;;;;;4.05;81.73;99424.41;5091725;28;20111;-83
2022/04/16 08:01:11;;;;;;;15.75;11.77;;;;;;;4.08;82.18;99426.66;5093272;28;20078;-83
2022/04/16 08:03:36;;;;;;;15.02;10.52;;;;;;;4.11;82.27;99428.09;5090339;28;20035;-81
2022/04/16 08:06:02;;;;;;;15.88;11.13;;;;;;;4.16;82.17;99420.06;5090902;28;20031;-79
2022/04/16 08:08:28;;;;;;;20.60;11.60;;;;;;;4.15;82.13;99427.41;5090469;28;20024;-80
2022/04/16 08:10:53;;;;;;;18.90;11.85;;;;;;;4.14;81.79;99431.19;5091126;28;20020;-76
2022/04/16 08:13:22;;;;;;;20.65;11.73;;;;;;;4.11;81.57;99431.63;5092069;28;20090;-82
2022/04/16 08:15:47;;;;;;;19.67;12.27;;;;;;;4.08;80.91;99429.38;5086776;28;20564;-79
2022/04/16 08:18:13;;;;;;;18.45;11.55;;;;;;;4.04;81.43;99444.47;5082351;28;20036;-79
2022/04/16 08:20:39;;;;;;;16.83;11.25;;;;;;;4.01;80.54;99444.94;5059638;28;20595;-77
2022/04/16 08:23:06;;;;;;;18.45;12.20;;;;;;;4.04;80.96;99443.66;5060189;28;20259;-83
2022/04/16 08:27:59;;;;;;;18.90;12.68;;;;;;;4.15;80.67;99429.28;5068721;28;20106;-82
2022/04/16 08:30:26;;;;;;;14.57;10.60;;;;;;;4.28;80.28;99442.69;5063232;28;20056;-78
2022/04/16 08:32:52;;;;;;;16.33;10.73;;;;;;;4.38;79.48;99438.59;5062799;28;20123;-80
2022/04/16 08:35:18;;;;;;;15.32;10.52;;;;;;;4.43;80.11;99441.44;5069530;28;20029;-82
2022/04/16 08:37:45;;;;;;;13.63;10.15;;;;;;;4.53;80.19;99444.41;5066944;28;20036;-79
2022/04/16 08:40:15;;;;;;;11.90;8.80;;;;;;;4.62;79.93;99443.00;5066107;28;20039;-79
2022/04/16 08:42:42;;;;;;;18.63;12.23;;;;;;;4.72;80.02;99445.16;5091382;28;20032;-78
2022/04/16 08:45:09;;;;;;;15.00;10.93;;;;;;;4.76;79.90;99449.06;5092767;28;20101;-77
2022/04/16 08:47:35;;;;;;;19.10;14.05;;;;;;;4.74;79.34;99455.81;5091505;28;20028;-73
2022/04/16 08:50:05;;;;;;;25.10;17.70;;;;;;;4.62;78.52;99451.16;5088197;28;20378;-79
2022/04/16 08:52:33;;;;;;;43.80;29.95;;;;;;;4.53;78.53;99458.00;5091421;28;20054;-78
2022/04/16 08:55:00;;;;;;;58.33;38.35;;;;;;;4.46;79.21;99460.81;5091515;28;20501;-80
2022/04/16 08:57:25;;;;;;;139.32;89.35;;;;;;;4.42;79.16;99470.47;5090891;28;20020;-83
2022/04/16 08:59:52;;;;;;;42.05;31.00;;;;;;;4.41;79.28;99462.56;5090433;28;20484;-83
2022/04/16 09:02:22;;;;;;;38.95;31.73;;;;;;;4.48;78.92;99471.47;5091609;28;20514;-81
2022/04/16 09:04:49;;;;;;;31.23;23.90;;;;;;;4.53;79.08;99471.56;5091594;28;20059;-86
2022/04/16 09:07:15;;;;;;;122.78;57.08;;;;;;;4.62;79.13;99467.47;5089703;28;20038;-80
2022/04/16 09:09:41;;;;;;;105.18;34.95;;;;;;;4.70;79.11;99473.63;5090331;28;20390;-82
2022/04/16 09:12:19;;;;;;;152.48;42.60;;;;;;;4.71;78.65;99475.28;5090616;28;20024;-83
2022/04/16 09:14:46;;;;;;;62.63;23.80;;;;;;;4.76;78.29;99473.53;5091401;28;20054;-80
2022/04/16 09:17:16;;;;;;;128.35;39.58;;;;;;;4.87;78.08;99477.34;5090987;28;20039;-79
2022/04/16 09:19:41;;;;;;;;;;;;;;;4.96;78.24;99480.56;5091929;28;20085;-77
2022/04/16 09:22:09;;;;;;;82.15;24.65;;;;;;;4.99;76.07;99476.53;5091261;28;20686;-77
2022/04/16 09:24:48;;;;;;;124.80;37.15;;;;;;;5.03;75.88;99481.28;5090902;28;20035;-76
2022/04/16 09:27:14;;;;;;;163.52;47.58;;;;;;;5.12;75.74;99481.75;5090955;28;20032;-76
2022/04/16 09:29:40;;;;;;;50.20;19.42;;;;;;;5.26;76.33;99492.41;5091377;28;20390;-76
2022/04/16 09:32:06;;;;;;;25.95;13.00;;;;;;;5.40;75.75;99493.00;5091346;28;20503;-78
2022/04/16 09:34:32;;;;;;;65.13;23.85;;;;;;;5.51;74.15;99503.03;5091192;28;20028;-77
2022/04/16 09:36:58;;;;;;;23.38;10.60;;;;;;;5.58;74.00;99501.03;5090935;28;20100;-77
2022/04/16 09:39:24;;;;;;;24.55;11.65;;;;;;;5.60;72.38;99506.25;5093271;28;20044;-79
2022/04/16 09:41:51;;;;;;;34.97;16.15;;;;;;;5.60;72.59;99503.53;5095454;28;20528;-81
2022/04/16 09:44:27;;;;;;;15.63;9.07;;;;;;;5.57;71.65;99518.41;5095204;28;20498;-80
2022/04/16 09:46:55;;;;;;;18.58;11.68;;;;;;;5.53;72.21;99513.69;5095351;28;20055;-79
2022/04/16 09:49:21;;;;;;;30.20;16.50;;;;;;;5.48;72.06;99514.41;5093946;28;20059;-78
2022/04/16 09:51:48;;;;;;;27.85;15.52;;;;;;;5.36;71.50;99519.84;5095505;28;20048;-77
2022/04/16 09:54:14;;;;;;;23.20;13.35;;;;;;;5.22;70.82;99525.53;5095084;28;20016;-78
2022/04/16 09:56:42;;;;;;;14.73;9.98;;;;;;;5.14;69.67;99523.13;5094918;28;20040;-78
2022/04/16 09:59:09;;;;;;;10.27;8.57;;;;;;;5.10;70.61;99521.09;5094730;28;20095;-80
2022/04/16 10:01:38;;;;;;;10.90;8.35;;;;;;;5.10;70.44;99523.81;5094819;28;20098;-78
2022/04/16 10:04:06;;;;;;;15.00;10.45;;;;;;;5.15;70.48;99532.94;5094903;28;20407;-77
2022/04/16 10:06:31;;;;;;;10.63;8.85;;;;;;;5.27;70.79;99537.59;5094885;28;20394;-79
2022/04/16 10:09:00;;;;;;;15.90;10.20;;;;;;;5.34;70.07;99532.84;5094028;28;20020;-79
2022/04/16 10:14:24;;;;;;;12.88;10.15;;;;;;;5.50;70.93;99544.94;5061575;28;20051;-80
2022/04/16 10:17:25;;;;;;;11.45;9.02;;;;;;;5.72;70.95;99541.63;5091390;28;20069;-80
2022/04/16 10:19:54;;;;;;;8.90;6.45;;;;;;;5.90;70.40;99544.22;5093043;28;20036;-80
2022/04/16 10:22:27;;;;;;;7.93;6.38;;;;;;;6.25;69.72;99540.63;5094067;28;20032;-80
2022/04/16 10:24:57;;;;;;;12.57;9.82;;;;;;;6.55;68.81;99542.31;5092650;28;20085;-81
2022/04/16 10:27:27;;;;;;;9.68;8.10;;;;;;;6.61;66.88;99535.03;5092537;28;20020;-80
2022/04/16 10:29:58;;;;;;;231.20;97.93;;;;;;;6.63;68.16;99540.25;5092989;28;20095;-78
2022/04/16 10:32:36;;;;;;;118.40;43.63;;;;;;;6.66;65.61;99537.88;5093327;28;20028;-80
2022/04/16 10:35:05;;;;;;;64.82;25.50;;;;;;;6.63;66.38;99543.81;5091835;28;20366;-80
2022/04/16 10:37:40;;;;;;;237.02;81.63;;;;;;;6.65;65.81;99544.38;5092644;28;20024;-83
2022/04/16 10:40:19;;;;;;;63.22;25.35;;;;;;;6.62;65.74;99541.34;5093532;28;20085;-83
2022/04/16 10:42:57;;;;;;;293.17;99.97;;;;;;;6.69;66.41;99533.84;5093779;28;20032;-80
2022/04/16 10:45:23;;;;;;;23.38;12.10;;;;;;;6.87;64.86;99537.41;5093603;28;20059;-80
2022/04/16 10:47:54;;;;;;;155.15;86.80;;;;;;;7.04;65.70;99524.63;5093716;28;20040;-80
2022/04/16 10:50:21;;;;;;;252.02;115.82;;;;;;;7.28;66.49;99536.22;5092297;28;20081;-80
2022/04/16 10:52:57;;;;;;;40.58;18.95;;;;;;;7.60;66.33;99527.44;5094023;28;20115;-79
2022/04/16 10:55:36;;;;;;;69.25;32.42;;;;;;;7.89;66.12;99537.41;5092368;28;20020;-80
2022/04/16 10:58:03;;;;;;;19.25;11.65;;;;;;;8.05;62.28;99530.25;5093754;28;20024;-80
2022/04/16 11:00:44;;;;;;;22.00;13.40;;;;;;;8.13;63.54;99531.69;5093581;28;20027;-79
2022/04/16 11:03:17;;;;;;;19.48;12.45;;;;;;;8.14;63.79;99533.34;5090086;28;20519;-76
2022/04/16 11:05:43;;;;;;;28.23;16.23;;;;;;;8.25;64.28;99537.88;5095651;28;20030;-77
2022/04/16 11:08:14;;;;;;;8.50;6.03;;;;;;;8.40;61.60;99526.28;5092794;28;20024;-76
2022/04/16 11:10:41;;;;;;;6.40;4.82;;;;;;;8.47;60.88;99532.41;5098282;28;20028;-77
2022/04/16 11:13:07;;;;;;;5.85;4.10;;;;;;;8.63;60.32;99527.09;5093400;28;20052;-77
2022/04/16 11:15:33;;;;;;;5.90;4.90;;;;;;;8.91;61.18;99525.22;5092798;28;20108;-78
2022/04/16 11:18:01;;;;;;;4.13;3.53;;;;;;;9.09;59.47;99522.09;5092239;28;20061;-78
2022/04/16 11:20:28;;;;;;;3.78;3.15;;;;;;;9.21;57.80;99526.56;5092846;28;20093;-78
2022/04/16 11:22:54;;;;;;;5.28;3.40;;;;;;;9.43;56.34;99522.91;5092803;28;20077;-76
2022/04/16 11:25:24;;;;;;;5.82;3.85;;;;;;;9.43;54.17;99518.25;5088892;28;20028;-77
2022/04/16 11:36:07;;;;;;;3.60;2.50;;;;;;;9.65;50.23;99528.25;5091810;28;20057;-77
2022/04/16 11:38:35;;;;;;;4.07;3.05;;;;;;;9.50;51.72;99531.72;5091475;28;20474;-76
2022/04/16 11:41:01;;;;;;;3.50;2.42;;;;;;;9.42;52.98;99530.31;5091473;28;20099;-77
2022/04/16 11:43:30;;;;;;;3.88;2.90;;;;;;;9.45;52.20;99528.94;5093047;28;20031;-77
2022/04/16 11:45:56;;;;;;;3.15;2.60;;;;;;;9.59;53.16;99526.56;5091523;28;20119;-77
2022/04/16 11:48:22;;;;;;;3.45;2.30;;;;;;;9.82;51.63;99522.59;5091564;28;20024;-77
2022/04/16 11:50:48;;;;;;;4.63;3.35;;;;;;;10.13;52.52;99518.13;5091592;28;20031;-77
2022/04/16 11:53:14;;;;;;;3.85;2.60;;;;;;;10.38;50.51;99521.25;5091310;28;20469;-78
2022/04/16 11:55:47;;;;;;;4.97;3.50;;;;;;;10.47;50.66;99516.06;5091383;28;20031;-78
2022/04/16 11:58:13;;;;;;;5.60;2.80;;;;;;;10.38;47.64;99530.31;5090800;28;20070;-78
2022/04/16 12:00:51;;;;;;;4.63;3.15;;;;;;;10.23;47.62;99538.47;5090857;28;20099;-78